Time;durP1;ratioP1;P1;durP2;ratioP2;P2;SDS_P1;SDS_P2;PMS_P1;PMS_P2;Temp;Humidity;BMP_temperature;BMP_pressure;BME280_temperature;BME280_humidity;BME280_pressure;Samples;Min_cycle;Max_cycle;Signal;HPM_P1;HPM_P2
2021/09/21 00:00:32;;;;;;;17.77;10.55;;;10.80;99.90;;;;;;5034293;28;20034;-85
2021/09/21 00:02:58;;;;;;;15.00;10.38;;;10.80;99.90;;;;;;5033054;28;20037;-85
2021/09/21 00:05:23;;;;;;;14.52;9.98;;;10.70;99.90;;;;;;5032653;28;20029;-85
2021/09/21 00:07:49;;;;;;;15.20;9.98;;;10.80;99.90;;;;;;5035490;28;20402;-85
2021/09/21 00:10:15;;;;;;;14.52;9.68;;;10.80;99.90;;;;;;5050732;28;20036;-86
2021/09/21 00:12:41;;;;;;;12.82;9.88;;;10.80;99.90;;;;;;5054045;28;20025;-85
2021/09/21 01:59:28;;;;;;;16.45;11.52;;;10.70;99.90;;;;;;5044981;28;20424;-85
2021/09/21 02:01:54;;;;;;;20.58;11.32;;;10.70;99.90;;;;;;5050623;28;20025;-85
2021/09/21 02:04:20;;;;;;;16.58;11.60;;;10.70;99.90;;;;;;5050470;28;20158;-85
2021/09/21 02:06:45;;;;;;;15.88;11.43;;;10.70;99.90;;;;;;5050532;28;20027;-85
2021/09/21 02:09:13;;;;;;;13.38;10.55;;;10.70;99.90;;;;;;5050624;28;20060;-85
2021/09/21 02:11:41;;;;;;;14.35;10.85;;;10.80;99.90;;;;;;5050132;28;20056;-85
2021/09/21 02:14:09;;;;;;;14.63;10.88;;;10.90;99.90;;;;;;5050443;28;20032;-85
2021/09/21 02:16:35;;;;;;;15.38;11.63;;;10.90;99.90;;;;;;5050374;28;20439;-84
2021/09/21 02:19:01;;;;;;;17.55;11.32;;;10.80;99.90;;;;;;5048547;28;20116;-85
2021/09/21 02:21:27;;;;;;;17.85;11.93;;;10.70;99.90;;;;;;5050410;28;20114;-85
2021/09/21 02:23:55;;;;;;;15.30;10.70;;;10.80;99.90;;;;;;5050212;28;20082;-85
2021/09/21 02:26:21;;;;;;;16.48;11.40;;;10.70;99.90;;;;;;5050348;28;20028;-85
2021/09/21 02:28:47;;;;;;;19.52;11.32;;;10.70;99.90;;;;;;5046556;28;20401;-85
2021/09/21 02:31:13;;;;;;;14.38;11.20;;;10.60;99.90;;;;;;5030441;28;20112;-85
2021/09/21 02:33:38;;;;;;;18.20;10.18;;;10.40;99.90;;;;;;5031601;28;20028;-85
2021/09/21 02:36:05;;;;;;;14.68;10.85;;;10.30;99.90;;;;;;5031645;28;20025;-85
2021/09/21 02:38:32;;;;;;;14.60;10.27;;;10.10;99.90;;;;;;5030486;28;20581;-85
2021/09/21 02:40:58;;;;;;;15.50;10.48;;;9.90;99.90;;;;;;5049018;28;20547;-85
2021/09/21 02:43:24;;;;;;;19.80;10.77;;;9.90;99.90;;;;;;5050349;28;20025;-85
2021/09/21 02:45:49;;;;;;;15.07;10.10;;;9.70;99.90;;;;;;5049821;28;20493;-85
2021/09/21 02:48:16;;;;;;;14.05;10.02;;;9.70;99.90;;;;;;5051419;28;20021;-85
2021/09/21 02:50:42;;;;;;;13.20;10.27;;;9.70;99.90;;;;;;5036005;28;20036;-85
2021/09/21 02:53:08;;;;;;;20.60;11.55;;;9.60;99.90;;;;;;5031589;28;20021;-85
2021/09/21 02:55:33;;;;;;;21.45;11.57;;;9.50;99.90;;;;;;5031355;28;20045;-85
2021/09/21 02:57:59;;;;;;;15.70;11.13;;;9.50;99.90;;;;;;5031441;28;20353;-85
2021/09/21 03:00:26;;;;;;;18.05;11.23;;;9.40;99.90;;;;;;5040385;28;20029;-85
2021/09/21 03:02:54;;;;;;;19.50;12.77;;;9.30;99.90;;;;;;5051408;28;20048;-85
2021/09/21 03:05:33;;;;;;;26.55;12.68;;;9.20;99.90;;;;;;5049941;28;20021;-85
2021/09/21 03:08:03;;;;;;;16.33;12.20;;;9.10;99.90;;;;;;5049670;28;20029;-85
2021/09/21 03:13:17;;;;;;;18.50;12.15;;;9.00;99.90;;;;;;5031520;28;20112;-85
2021/09/21 03:18:28;;;;;;;20.38;11.70;;;8.90;99.90;;;;;;5031436;28;20406;-84
2021/09/21 03:20:54;;;;;;;20.58;12.85;;;8.90;99.90;;;;;;5032214;28;20021;-85
2021/09/21 03:23:19;;;;;;;19.48;12.32;;;8.90;99.90;;;;;;5030121;28;20034;-85
2021/09/21 03:25:45;;;;;;;17.95;13.02;;;9.00;99.90;;;;;;5030921;28;20033;-85
2021/09/21 03:28:11;;;;;;;20.30;12.27;;;9.00;99.90;;;;;;5029969;28;20021;-84
2021/09/21 03:30:36;;;;;;;19.58;12.05;;;9.10;99.90;;;;;;5031866;28;20124;-85
2021/09/21 03:33:03;;;;;;;18.80;12.82;;;9.20;99.90;;;;;;5051170;28;20033;-85
2021/09/21 03:35:28;;;;;;;17.77;12.35;;;9.30;99.90;;;;;;5054536;28;20108;-85
2021/09/21 03:37:54;;;;;;;17.33;12.57;;;9.40;99.90;;;;;;5053343;28;20067;-85
2021/09/21 03:40:19;;;;;;;22.52;13.07;;;9.50;99.90;;;;;;5053391;28;20142;-85
2021/09/21 03:42:45;;;;;;;22.20;15.00;;;9.60;99.90;;;;;;5036125;28;20033;-84
2021/09/21 03:45:11;;;;;;;22.60;13.45;;;9.80;99.90;;;;;;5033217;28;20029;-85
2021/09/21 03:47:37;;;;;;;21.73;13.90;;;9.80;99.90;;;;;;5033137;28;20029;-84
2021/09/21 03:50:05;;;;;;;22.50;13.02;;;10.00;99.90;;;;;;5034550;28;20048;-85
2021/09/21 03:52:30;;;;;;;16.33;12.43;;;9.90;99.90;;;;;;5045018;28;20493;-86
2021/09/21 03:54:56;;;;;;;23.88;13.55;;;10.10;99.90;;;;;;5052861;28;20032;-85
2021/09/21 03:57:22;;;;;;;18.58;12.43;;;10.10;99.90;;;;;;5054461;28;20107;-85
2021/09/21 03:59:47;;;;;;;21.23;13.05;;;10.10;99.90;;;;;;5054295;28;20021;-85
2021/09/21 04:02:13;;;;;;;17.67;12.25;;;10.20;99.90;;;;;;5047237;28;20030;-85
2021/09/21 04:04:39;;;;;;;20.23;13.07;;;10.20;99.90;;;;;;5034110;28;20072;-86
2021/09/21 04:07:04;;;;;;;20.15;13.27;;;10.30;99.90;;;;;;5034086;28;20501;-85
2021/09/21 04:09:30;;;;;;;21.63;12.60;;;10.40;99.90;;;;;;5032824;28;20025;-85
2021/09/21 04:11:55;;;;;;;22.20;13.75;;;10.40;99.90;;;;;;5035338;28;20104;-83
2021/09/21 04:14:21;;;;;;;17.40;12.68;;;10.40;99.90;;;;;;5053835;28;20051;-85
2021/09/21 04:16:46;;;;;;;17.23;12.15;;;10.40;99.90;;;;;;5053906;28;20083;-85
2021/09/21 04:19:12;;;;;;;20.38;11.73;;;10.40;99.90;;;;;;5052642;28;20044;-85
2021/09/21 04:21:38;;;;;;;22.55;14.02;;;10.40;99.90;;;;;;5052626;28;20123;-85
2021/09/21 04:24:04;;;;;;;19.33;12.95;;;10.40;99.90;;;;;;5037162;28;20025;-85
2021/09/21 04:26:29;;;;;;;18.10;13.23;;;10.50;99.90;;;;;;5033810;28;20025;-85
2021/09/21 04:28:55;;;;;;;19.15;12.98;;;10.50;99.90;;;;;;5033816;28;20040;-86
2021/09/21 04:31:24;;;;;;;19.05;12.07;;;10.50;99.90;;;;;;5033865;28;20029;-85
2021/09/21 04:33:51;;;;;;;16.90;12.02;;;10.40;99.90;;;;;;5043322;28;20068;-84
2021/09/21 04:36:18;;;;;;;18.02;11.85;;;10.40;99.90;;;;;;5052347;28;20029;-85
2021/09/21 04:38:44;;;;;;;19.70;12.52;;;10.40;99.90;;;;;;5053569;28;20416;-85
2021/09/21 04:41:10;;;;;;;25.48;13.30;;;10.40;99.90;;;;;;5053560;28;20017;-85
2021/09/21 04:43:37;;;;;;;17.48;12.75;;;10.40;99.90;;;;;;5051461;28;20522;-85
2021/09/21 04:46:07;;;;;;;20.13;12.73;;;10.40;99.90;;;;;;5053313;28;20025;-85
2021/09/21 04:48:33;;;;;;;20.88;12.65;;;10.50;99.90;;;;;;5052204;28;20524;-85
2021/09/21 04:51:00;;;;;;;25.77;12.27;;;10.50;99.90;;;;;;5052129;28;20389;-85
2021/09/21 04:53:26;;;;;;;18.58;12.43;;;10.50;99.90;;;;;;5049717;28;20101;-86
2021/09/21 04:55:51;;;;;;;18.50;12.63;;;10.50;99.90;;;;;;5032179;28;20091;-85
2021/09/21 04:58:17;;;;;;;20.00;12.98;;;10.50;99.90;;;;;;5032047;28;20021;-85
2021/09/21 05:00:42;;;;;;;23.15;13.63;;;10.60;99.90;;;;;;5032048;28;20021;-86
2021/09/21 05:03:08;;;;;;;20.58;13.18;;;10.60;99.90;;;;;;5032001;28;20497;-86
2021/09/21 05:05:33;;;;;;;17.70;12.35;;;10.60;99.90;;;;;;5048712;28;20612;-86
2021/09/21 05:07:59;;;;;;;22.40;13.60;;;10.60;99.90;;;;;;5051616;28;20477;-85
2021/09/21 05:10:26;;;;;;;25.52;13.50;;;10.60;99.90;;;;;;5051759;28;20021;-85
2021/09/21 05:12:52;;;;;;;22.02;13.55;;;10.50;99.90;;;;;;5052932;28;20057;-83
2021/09/21 05:15:17;;;;;;;18.95;12.27;;;10.60;99.90;;;;;;5044794;28;20055;-83
2021/09/21 05:17:43;;;;;;;19.75;13.00;;;10.60;99.90;;;;;;5052741;28;20039;-83
2021/09/21 05:20:09;;;;;;;21.48;11.85;;;10.70;99.90;;;;;;5052773;28;20056;-83
2021/09/21 05:22:35;;;;;;;22.60;13.73;;;10.70;99.90;;;;;;5051361;28;20029;-83
2021/09/21 05:25:00;;;;;;;33.13;14.52;;;10.70;99.90;;;;;;5037606;28;20055;-83
2021/09/21 05:27:26;;;;;;;24.42;14.75;;;10.70;99.90;;;;;;5032516;28;20037;-83
2021/09/21 05:29:52;;;;;;;21.63;13.63;;;10.70;99.90;;;;;;5031355;28;20414;-83
2021/09/21 05:32:17;;;;;;;25.77;15.38;;;10.70;99.90;;;;;;5031413;28;20048;-83
2021/09/21 05:34:43;;;;;;;23.80;15.30;;;10.70;99.90;;;;;;5041516;28;20033;-84
2021/09/21 05:37:08;;;;;;;27.15;16.08;;;10.70;99.90;;;;;;5052322;28;20539;-83
2021/09/21 05:39:34;;;;;;;23.48;15.05;;;10.70;99.90;;;;;;5051214;28;20611;-83
2021/09/21 05:42:00;;;;;;;25.80;16.27;;;10.70;99.90;;;;;;5040769;28;20061;-83
2021/09/21 05:44:25;;;;;;;25.42;15.93;;;10.70;99.90;;;;;;5032184;28;20036;-84
2021/09/21 05:46:51;;;;;;;22.95;15.93;;;10.80;99.90;;;;;;5030945;28;20025;-83
2021/09/21 05:49:17;;;;;;;23.15;15.60;;;10.80;99.90;;;;;;5032375;28;20065;-83
2021/09/21 05:51:42;;;;;;;25.67;17.35;;;10.80;99.90;;;;;;5036876;28;20033;-83
2021/09/21 05:54:08;;;;;;;26.83;16.83;;;10.90;99.90;;;;;;5050691;28;20124;-83
2021/09/21 05:56:33;;;;;;;22.95;15.07;;;10.90;99.90;;;;;;5051648;28;20028;-83
2021/09/21 05:58:59;;;;;;;23.80;15.27;;;11.00;99.90;;;;;;5052014;28;20029;-83
2021/09/21 06:01:25;;;;;;;25.42;14.68;;;11.00;99.90;;;;;;5049851;28;20393;-83
2021/09/21 06:03:51;;;;;;;23.67;15.80;;;11.10;99.90;;;;;;5051098;28;20025;-84
2021/09/21 06:06:16;;;;;;;26.17;16.48;;;11.20;99.90;;;;;;5050244;28;20478;-83
2021/09/21 06:08:42;;;;;;;26.70;15.48;;;11.20;99.90;;;;;;5051884;28;20021;-83
2021/09/21 06:11:08;;;;;;;20.13;13.88;;;11.30;99.90;;;;;;5051770;28;20090;-84
2021/09/21 06:13:33;;;;;;;22.95;16.42;;;11.30;99.90;;;;;;5036907;28;20031;-83
2021/09/21 06:16:00;;;;;;;23.27;16.00;;;11.40;99.90;;;;;;5031436;28;20025;-84
2021/09/21 06:18:25;;;;;;;22.73;16.00;;;11.40;99.90;;;;;;5030612;28;20057;-84
2021/09/21 06:20:51;;;;;;;27.15;16.25;;;11.50;99.90;;;;;;5031805;28;20057;-83
2021/09/21 06:23:19;;;;;;;27.90;17.00;;;11.60;99.90;;;;;;5040925;28;20036;-83
2021/09/21 06:25:45;;;;;;;25.48;16.92;;;11.60;99.90;;;;;;5051506;28;20033;-83
2021/09/21 06:28:11;;;;;;;25.05;16.85;;;11.60;99.90;;;;;;5051501;28;20426;-83
2021/09/21 06:30:37;;;;;;;24.13;15.85;;;11.70;99.90;;;;;;5051588;28;20083;-83
2021/09/21 06:33:03;;;;;;;23.77;15.88;;;11.70;99.90;;;;;;5035069;28;20405;-85
2021/09/21 06:35:29;;;;;;;27.67;16.13;;;11.80;99.90;;;;;;5041052;28;20037;-85
2021/09/21 06:37:55;;;;;;;23.30;15.45;;;11.90;99.90;;;;;;5050115;28;20029;-85
2021/09/21 06:40:21;;;;;;;25.70;16.38;;;11.90;99.90;;;;;;5051488;28;20032;-84
2021/09/21 06:42:48;;;;;;;20.88;15.93;;;12.00;99.90;;;;;;5041375;28;20029;-84
2021/09/21 06:45:16;;;;;;;24.10;14.55;;;12.00;99.90;;;;;;5031297;28;20029;-83
2021/09/21 06:47:42;;;;;;;21.80;13.57;;;12.00;99.90;;;;;;5031411;28;20402;-83
2021/09/21 06:50:08;;;;;;;26.50;15.80;;;12.10;99.90;;;;;;5030352;28;20036;-83
2021/09/21 06:52:34;;;;;;;19.33;13.25;;;12.10;99.90;;;;;;5035430;28;20025;-84
2021/09/21 06:54:59;;;;;;;20.45;13.48;;;12.20;99.90;;;;;;5051535;28;20047;-85
2021/09/21 06:57:25;;;;;;;20.45;13.48;;;12.20;99.90;;;;;;5051274;28;20123;-83
2021/09/21 06:59:52;;;;;;;23.05;14.23;;;12.30;99.90;;;;;;5050062;28;20036;-83
2021/09/21 07:02:18;;;;;;;20.10;14.88;;;12.30;99.90;;;;;;5050640;28;20021;-83
2021/09/21 07:04:43;;;;;;;18.05;13.32;;;12.40;99.90;;;;;;5029850;28;20079;-85
2021/09/21 07:07:09;;;;;;;20.08;14.15;;;12.40;99.90;;;;;;5031292;28;20032;-83
2021/09/21 07:09:34;;;;;;;24.73;15.65;;;12.50;99.90;;;;;;5032656;28;20022;-84
2021/09/21 07:12:01;;;;;;;26.67;14.15;;;12.50;99.90;;;;;;5035187;28;20393;-83
2021/09/21 07:14:27;;;;;;;24.98;15.00;;;12.60;99.90;;;;;;5050177;28;20029;-83
2021/09/21 07:16:52;;;;;;;28.95;15.40;;;12.60;99.90;;;;;;5053668;28;20039;-83
2021/09/21 07:19:18;;;;;;;25.83;15.73;;;12.60;99.90;;;;;;5037051;28;20044;-83
2021/09/21 07:21:47;;;;;;;24.85;14.57;;;12.70;99.90;;;;;;5053780;28;20393;-84
2021/09/21 07:24:14;;;;;;;21.00;14.40;;;12.60;99.90;;;;;;5053373;28;20120;-83
2021/09/21 07:26:41;;;;;;;20.15;15.18;;;12.70;99.90;;;;;;5053397;28;20029;-84
2021/09/21 07:29:06;;;;;;;25.52;16.05;;;12.80;99.90;;;;;;5053578;28;20048;-84
2021/09/21 07:31:32;;;;;;;25.30;15.50;;;12.80;99.90;;;;;;5037828;28;20482;-84
2021/09/21 07:33:58;;;;;;;21.95;15.18;;;12.90;99.90;;;;;;5037654;28;20037;-85
2021/09/21 07:36:23;;;;;;;19.30;13.90;;;13.00;99.90;;;;;;5034622;28;20109;-84
2021/09/21 07:38:49;;;;;;;24.27;16.40;;;12.90;99.90;;;;;;5033574;28;20026;-85
2021/09/21 07:41:14;;;;;;;25.45;14.30;;;13.10;99.90;;;;;;5034566;28;20116;-84
2021/09/21 07:43:40;;;;;;;21.75;15.82;;;13.10;99.90;;;;;;5033490;28;20025;-85
2021/09/21 07:46:06;;;;;;;26.40;15.65;;;13.10;99.90;;;;;;5034458;28;20033;-87
2021/09/21 07:48:31;;;;;;;21.70;15.57;;;13.10;99.90;;;;;;5033237;28;20051;-86
2021/09/21 07:50:57;;;;;;;23.65;16.05;;;13.10;99.90;;;;;;5033674;28;20017;-86
2021/09/21 07:53:23;;;;;;;20.48;14.10;;;13.10;99.90;;;;;;5033162;28;20496;-86
2021/09/21 07:55:50;;;;;;;29.23;15.98;;;13.10;99.90;;;;;;5050767;28;20055;-86
2021/09/21 07:58:17;;;;;;;24.60;15.75;;;13.20;99.90;;;;;;5054221;28;20018;-84
2021/09/21 08:00:43;;;;;;;24.95;16.23;;;13.10;99.90;;;;;;5054151;28;20076;-84
2021/09/21 08:03:09;;;;;;;24.02;15.65;;;13.10;99.90;;;;;;5053055;28;20504;-85
2021/09/21 08:05:35;;;;;;;30.80;17.17;;;13.20;99.90;;;;;;5051895;28;20461;-83
2021/09/21 08:08:01;;;;;;;29.85;17.20;;;13.20;99.90;;;;;;5053993;28;20021;-81
2021/09/21 08:10:26;;;;;;;28.02;17.20;;;13.20;99.90;;;;;;5043382;28;20037;-81
2021/09/21 08:12:52;;;;;;;34.47;18.13;;;13.10;99.90;;;;;;5034028;28;20033;-82
2021/09/21 08:15:18;;;;;;;27.33;16.23;;;13.20;99.90;;;;;;5032527;28;20474;-81
2021/09/21 08:17:44;;;;;;;20.48;15.00;;;13.30;99.90;;;;;;5043906;28;20121;-82
2021/09/21 08:20:10;;;;;;;28.67;17.23;;;13.30;99.90;;;;;;5052182;28;20474;-83
2021/09/21 08:22:37;;;;;;;29.25;17.50;;;13.30;99.90;;;;;;5052588;28;20028;-81
2021/09/21 08:25:06;;;;;;;32.45;18.50;;;13.30;99.90;;;;;;5053446;28;20025;-80
2021/09/21 08:27:33;;;;;;;29.45;16.80;;;13.30;99.90;;;;;;5050635;28;20116;-81
2021/09/21 08:29:59;;;;;;;26.27;16.40;;;13.40;99.90;;;;;;5052370;28;20063;-81
2021/09/21 08:32:26;;;;;;;33.10;18.20;;;13.50;99.90;;;;;;5052344;28;20116;-79
2021/09/21 08:34:52;;;;;;;31.70;17.90;;;13.60;99.90;;;;;;5053412;28;20021;-78
2021/09/21 08:37:18;;;;;;;32.90;16.38;;;13.60;99.90;;;;;;5045707;28;20033;-80
2021/09/21 08:39:43;;;;;;;30.88;17.42;;;13.70;99.90;;;;;;5044111;28;20035;-78
2021/09/21 08:42:09;;;;;;;22.17;15.07;;;13.70;99.90;;;;;;5046522;28;20025;-79
2021/09/21 08:44:37;;;;;;;25.20;13.95;;;13.90;99.90;;;;;;5033197;28;20029;-79
2021/09/21 08:47:04;;;;;;;23.10;15.20;;;14.10;99.90;;;;;;5044494;28;20029;-80
2021/09/21 08:49:30;;;;;;;26.95;16.65;;;14.30;99.90;;;;;;5053465;28;20016;-80
2021/09/21 08:51:55;;;;;;;28.15;15.57;;;14.30;99.90;;;;;;5052066;28;20477;-79
2021/09/21 08:54:21;;;;;;;24.35;14.55;;;14.40;99.90;;;;;;5052911;28;20524;-78
2021/09/21 08:56:48;;;;;;;21.90;15.05;;;14.60;99.90;;;;;;5049113;28;20451;-80
2021/09/21 08:59:15;;;;;;;22.30;13.27;;;14.60;99.90;;;;;;5053036;28;20021;-80
2021/09/21 09:01:46;;;;;;;20.55;14.35;;;14.70;99.90;;;;;;5053163;28;20025;-84
2021/09/21 09:04:13;;;;;;;28.55;14.65;;;14.90;99.90;;;;;;5052780;28;20405;-77
2021/09/21 09:06:51;;;;;;;31.38;15.48;;;15.00;99.90;;;;;;5038773;28;20026;-79
2021/09/21 09:09:21;;;;;;;28.38;14.75;;;15.00;99.90;;;;;;5031697;28;20029;-80
2021/09/21 09:11:48;;;;;;;29.27;15.15;;;15.20;99.90;;;;;;5034072;28;20017;-80
2021/09/21 09:14:19;;;;;;;21.77;12.95;;;15.30;99.90;;;;;;5047512;28;20017;-80
2021/09/21 09:16:45;;;;;;;29.83;14.23;;;15.40;99.90;;;;;;5047815;28;20067;-79
2021/09/21 09:19:12;;;;;;;23.27;10.98;;;15.50;99.90;;;;;;5042444;28;20435;-79
2021/09/21 09:21:41;;;;;;;26.50;10.75;;;15.70;99.90;;;;;;5047545;28;20020;-78
2021/09/21 09:24:09;;;;;;;29.65;8.15;;;15.80;99.90;;;;;;5047917;28;20516;-82
2021/09/21 09:26:38;;;;;;;21.55;5.95;;;15.80;99.90;;;;;;5046658;28;20029;-80
2021/09/21 09:29:08;;;;;;;19.90;5.40;;;15.90;99.90;;;;;;5046985;28;20021;-79
2021/09/21 09:31:35;;;;;;;15.23;4.63;;;16.00;99.90;;;;;;5047546;28;20099;-80
2021/09/21 09:34:15;;;;;;;16.95;5.28;;;16.00;99.90;;;;;;5047848;28;20025;-79
2021/09/21 09:36:57;;;;;;;12.10;3.53;;;16.00;99.90;;;;;;5047668;28;20052;-79
2021/09/21 09:39:25;;;;;;;17.20;3.47;;;16.10;99.90;;;;;;5046466;28;20492;-80
2021/09/21 09:41:54;;;;;;;16.30;3.22;;;16.20;99.90;;;;;;5048073;28;20021;-80
2021/09/21 09:44:22;;;;;;;18.25;4.40;;;16.40;99.90;;;;;;5053570;28;20111;-80
2021/09/21 09:46:49;;;;;;;11.63;2.42;;;16.40;99.90;;;;;;5045766;28;20509;-80
2021/09/21 09:49:21;;;;;;;15.30;2.53;;;16.40;99.90;;;;;;5046347;28;20027;-80
2021/09/21 09:51:48;;;;;;;15.73;3.08;;;16.50;99.90;;;;;;5047956;28;20393;-79
2021/09/21 09:54:14;;;;;;;9.10;1.98;;;16.60;99.90;;;;;;5047327;28;20021;-79
2021/09/21 09:56:42;;;;;;;12.77;2.55;;;16.60;99.90;;;;;;5043601;28;20497;-79
2021/09/21 09:59:09;;;;;;;10.13;2.03;;;16.70;99.90;;;;;;5046915;28;20040;-80
2021/09/21 10:01:35;;;;;;;12.70;2.00;;;16.90;99.90;;;;;;5047572;28;20086;-80
2021/09/21 10:04:01;;;;;;;10.43;2.05;;;17.00;99.90;;;;;;5047673;28;20025;-80
2021/09/21 10:06:30;;;;;;;22.40;2.75;;;16.90;99.90;;;;;;5046749;28;20592;-80
2021/09/21 10:08:56;;;;;;;23.13;2.47;;;17.10;99.90;;;;;;5042705;28;20059;-81
2021/09/21 10:11:22;;;;;;;18.40;2.00;;;17.00;99.90;;;;;;5047813;28;20024;-79
2021/09/21 10:13:48;;;;;;;22.27;3.25;;;17.10;99.90;;;;;;5047894;28;20150;-78
2021/09/21 10:16:14;;;;;;;12.93;3.13;;;17.20;99.90;;;;;;5045932;28;20094;-80
2021/09/21 10:18:44;;;;;;;14.73;2.15;;;17.30;99.90;;;;;;5038732;28;20030;-80
2021/09/21 10:21:10;;;;;;;11.13;1.98;;;17.30;99.90;;;;;;5038075;28;20021;-82
2021/09/21 10:23:39;;;;;;;9.73;1.80;;;17.20;99.90;;;;;;5050041;28;20370;-81
2021/09/21 10:26:16;;;;;;;9.07;1.35;;;17.30;99.90;;;;;;5049429;28;20090;-81
2021/09/21 10:28:45;;;;;;;13.52;2.17;;;17.30;99.90;;;;;;5041860;28;20049;-81
2021/09/21 10:31:13;;;;;;;18.00;2.58;;;17.20;99.90;;;;;;5030956;28;20014;-80
2021/09/21 10:33:40;;;;;;;13.60;1.55;;;17.30;99.90;;;;;;5035366;28;20030;-81
2021/09/21 10:36:44;;;;;;;9.15;1.27;;;17.40;99.90;;;;;;5029839;28;20031;-79
2021/09/21 10:39:11;;;;;;;19.88;2.13;;;17.20;99.90;;;;;;5025313;28;20061;-81
2021/09/21 10:41:57;;;;;;;11.32;1.98;;;17.30;99.90;;;;;;5047635;28;20027;-80
2021/09/21 10:44:24;;;;;;;17.17;1.83;;;17.30;99.90;;;;;;5054494;28;20582;-80
2021/09/21 10:46:58;;;;;;;10.65;2.70;;;17.40;99.90;;;;;;5049992;28;20025;-80
2021/09/21 10:49:28;;;;;;;17.42;2.42;;;17.40;99.90;;;;;;5034581;28;20025;-81
2021/09/21 10:51:58;;;;;;;20.65;2.78;;;17.40;99.90;;;;;;5036467;28;20022;-81
2021/09/21 10:54:33;;;;;;;20.70;3.25;;;17.20;99.90;;;;;;5035216;28;20033;-82
2021/09/21 10:57:16;;;;;;;36.63;11.77;;;17.10;99.90;;;;;;5035346;28;20034;-80
2021/09/21 11:00:07;;;;;;;26.70;11.10;;;17.20;99.90;;;;;;5039959;28;20029;-81
2021/09/21 11:02:37;;;;;;;26.02;12.30;;;17.30;99.90;;;;;;5054837;28;20505;-81
2021/09/21 11:05:08;;;;;;;13.15;2.38;;;17.40;99.90;;;;;;5060388;28;20029;-80
2021/09/21 11:07:37;;;;;;;20.27;3.63;;;17.40;99.90;;;;;;5061713;28;20017;-80
2021/09/21 11:10:04;;;;;;;22.63;5.70;;;17.60;99.90;;;;;;5048876;28;20128;-81
2021/09/21 11:12:29;;;;;;;21.52;2.22;;;17.70;99.90;;;;;;5035705;28;20018;-81
2021/09/21 11:14:57;;;;;;;15.32;2.55;;;17.50;99.90;;;;;;5035508;28;20044;-81
2021/09/21 11:17:26;;;;;;;10.20;2.60;;;17.50;99.90;;;;;;5034978;28;20444;-81
2021/09/21 11:19:55;;;;;;;17.38;1.98;;;17.60;99.90;;;;;;5043451;28;20417;-82
2021/09/21 11:22:26;;;;;;;24.88;2.78;;;17.40;99.90;;;;;;5053691;28;20029;-81
2021/09/21 11:25:03;;;;;;;15.18;2.50;;;17.30;99.90;;;;;;5054749;28;20028;-81
2021/09/21 11:27:29;;;;;;;22.90;2.22;;;17.30;99.90;;;;;;5040634;28;20037;-81
2021/09/21 11:30:14;;;;;;;20.10;3.13;;;17.30;99.90;;;;;;5033543;28;20026;-81
2021/09/21 11:32:41;;;;;;;19.50;2.58;;;17.20;99.90;;;;;;5034843;28;20040;-80
2021/09/21 11:35:13;;;;;;;19.30;2.38;;;17.20;99.90;;;;;;5033380;28;20447;-83
2021/09/21 11:37:49;;;;;;;20.08;3.05;;;17.10;99.90;;;;;;5044125;28;20037;-84
2021/09/21 11:40:33;;;;;;;30.35;2.50;;;17.20;99.90;;;;;;5044865;28;20090;-82
2021/09/21 11:43:00;;;;;;;10.15;2.03;;;17.30;99.90;;;;;;5034741;28;20100;-82
2021/09/21 11:45:27;;;;;;;15.25;2.25;;;17.30;99.90;;;;;;5034463;28;20022;-80
2021/09/21 11:47:53;;;;;;;13.82;2.40;;;17.40;99.90;;;;;;5051866;28;20404;-80
2021/09/21 11:50:24;;;;;;;13.30;1.95;;;17.40;99.90;;;;;;5053079;28;20053;-81
2021/09/21 11:52:55;;;;;;;23.13;2.40;;;17.40;99.90;;;;;;5054542;28;20104;-81
2021/09/21 11:55:24;;;;;;;24.80;2.97;;;17.50;99.90;;;;;;5052200;28;20104;-83
2021/09/21 11:57:50;;;;;;;18.10;3.00;;;17.40;99.90;;;;;;5048097;28;20033;-80
2021/09/21 12:00:27;;;;;;;29.27;5.03;;;17.30;99.90;;;;;;5052773;28;20029;-80
2021/09/21 12:03:05;;;;;;;14.00;2.53;;;17.20;99.90;;;;;;5053062;28;20025;-80
2021/09/21 12:05:33;;;;;;;22.02;3.75;;;17.20;99.90;;;;;;5054045;28;20075;-81
2021/09/21 12:08:03;;;;;;;21.50;2.67;;;17.20;99.90;;;;;;5042502;28;20393;-80
2021/09/21 12:10:30;;;;;;;16.35;2.38;;;17.10;99.90;;;;;;5034293;28;20013;-80
2021/09/21 12:13:02;;;;;;;19.27;3.38;;;17.10;99.90;;;;;;5032731;28;20025;-80
2021/09/21 12:15:29;;;;;;;21.27;2.70;;;17.10;99.90;;;;;;5040413;28;20029;-81
2021/09/21 12:17:56;;;;;;;24.15;2.92;;;17.10;99.90;;;;;;5052851;28;20116;-82
2021/09/21 12:20:28;;;;;;;19.65;2.97;;;17.10;99.90;;;;;;5052639;28;20029;-82
2021/09/21 12:22:54;;;;;;;15.25;2.72;;;17.00;99.90;;;;;;5053955;28;20094;-80
2021/09/21 12:25:22;;;;;;;21.85;4.22;;;17.00;99.90;;;;;;5053490;28;20472;-80
2021/09/21 12:27:52;;;;;;;22.83;2.65;;;17.10;99.90;;;;;;5049389;28;20104;-80
2021/09/21 12:30:22;;;;;;;20.70;4.15;;;17.10;99.90;;;;;;5033857;28;20053;-81
2021/09/21 12:33:00;;;;;;;22.20;3.97;;;17.00;99.90;;;;;;5033973;28;20058;-81
2021/09/21 12:35:31;;;;;;;18.05;3.38;;;16.80;99.90;;;;;;5032130;28;20030;-81
2021/09/21 12:38:22;;;;;;;20.52;3.45;;;16.60;99.90;;;;;;5032726;28;20383;-80
2021/09/21 12:40:55;;;;;;;19.58;4.03;;;16.10;99.90;;;;;;5033728;28;20033;-78
2021/09/21 12:43:42;;;;;;;16.05;3.15;;;15.80;99.90;;;;;;5033611;28;20091;-77
2021/09/21 12:46:12;;;;;;;65.50;14.07;;;15.60;99.90;;;;;;5033229;28;20432;-79
2021/09/21 12:48:42;;;;;;;27.45;5.65;;;15.50;99.90;;;;;;5037439;28;20024;-80
2021/09/21 12:51:10;;;;;;;17.23;3.38;;;15.40;99.90;;;;;;5053364;28;20096;-80
2021/09/21 12:53:36;;;;;;;39.28;5.00;;;15.30;99.90;;;;;;5051936;28;20443;-82
2021/09/21 12:56:05;;;;;;;20.35;4.97;;;15.20;99.90;;;;;;5053021;28;20017;-81
2021/09/21 12:58:35;;;;;;;22.77;3.90;;;15.30;99.90;;;;;;5051349;28;20074;-81
2021/09/21 13:01:04;;;;;;;18.92;3.85;;;15.30;99.90;;;;;;5053231;28;20051;-81
2021/09/21 13:03:31;;;;;;;30.70;4.85;;;15.40;99.90;;;;;;5052389;28;20028;-83
2021/09/21 13:05:57;;;;;;;35.63;4.75;;;15.60;99.90;;;;;;5051887;28;20013;-81
2021/09/21 13:08:22;;;;;;;31.40;4.40;;;15.70;99.90;;;;;;5050687;28;20098;-81
2021/09/21 13:10:48;;;;;;;28.60;4.60;;;15.90;99.90;;;;;;5049901;28;20029;-81
2021/09/21 13:13:14;;;;;;;33.15;4.85;;;16.20;99.90;;;;;;5051349;28;20025;-81
2021/09/21 13:15:41;;;;;;;37.47;4.18;;;16.30;99.90;;;;;;5052486;28;20768;-81
2021/09/21 13:18:07;;;;;;;45.38;6.25;;;16.40;99.90;;;;;;5052716;28;20025;-82
2021/09/21 13:20:34;;;;;;;37.80;5.88;;;16.40;99.90;;;;;;5051954;28;20037;-80
2021/09/21 13:23:00;;;;;;;35.58;5.50;;;16.40;99.90;;;;;;5052696;28;20397;-82
2021/09/21 13:25:26;;;;;;;33.65;6.25;;;16.30;99.90;;;;;;5052347;28;20397;-82
2021/09/21 13:27:52;;;;;;;60.78;9.00;;;16.30;99.90;;;;;;5052270;28;20025;-80
2021/09/21 13:30:18;;;;;;;31.77;5.03;;;16.20;99.90;;;;;;5044769;28;20097;-83
2021/09/21 13:32:44;;;;;;;25.60;4.78;;;16.10;99.90;;;;;;5032500;28;20036;-81
2021/09/21 13:35:11;;;;;;;21.30;4.20;;;15.90;99.90;;;;;;5032291;28;20030;-81
2021/09/21 13:37:38;;;;;;;27.33;3.47;;;15.80;99.90;;;;;;5031161;28;20120;-82
2021/09/21 13:40:06;;;;;;;29.30;4.28;;;15.80;99.90;;;;;;5035105;28;20075;-81
2021/09/21 13:42:31;;;;;;;28.98;4.43;;;15.90;99.90;;;;;;5052110;28;20028;-82
2021/09/21 13:44:57;;;;;;;28.90;4.30;;;15.90;99.90;;;;;;5050801;28;20033;-81
2021/09/21 13:47:23;;;;;;;22.88;3.95;;;15.90;99.90;;;;;;5050840;28;20036;-81
2021/09/21 13:49:50;;;;;;;22.30;4.13;;;15.90;99.90;;;;;;5050999;28;20025;-81
2021/09/21 13:52:19;;;;;;;29.80;4.78;;;16.10;99.90;;;;;;5033686;28;20021;-81
2021/09/21 13:54:44;;;;;;;29.65;4.00;;;16.20;99.90;;;;;;5030859;28;20029;-81
2021/09/21 13:57:10;;;;;;;33.42;4.75;;;16.00;99.90;;;;;;5030825;28;20021;-81
2021/09/21 13:59:36;;;;;;;30.85;5.10;;;16.10;99.90;;;;;;5032937;28;20029;-80
2021/09/21 14:02:06;;;;;;;24.80;4.88;;;16.20;99.90;;;;;;5046758;28;20033;-81
2021/09/21 14:04:33;;;;;;;25.88;4.72;;;16.40;99.90;;;;;;5062807;28;20024;-81
2021/09/21 14:06:59;;;;;;;24.17;4.05;;;16.50;99.90;;;;;;5046813;28;20049;-82
2021/09/21 14:09:26;;;;;;;34.47;6.30;;;16.80;99.90;;;;;;5039464;28;20056;-81
2021/09/21 14:11:52;;;;;;;34.90;6.25;;;17.00;99.90;;;;;;5051794;28;20040;-80
2021/09/21 14:14:18;;;;;;;27.38;5.15;;;17.10;99.90;;;;;;5051737;28;20049;-81
2021/09/21 14:16:44;;;;;;;26.45;5.57;;;17.20;99.90;;;;;;5050798;28;20032;-84
2021/09/21 14:19:09;;;;;;;41.10;6.07;;;17.20;99.90;;;;;;5064008;28;20032;-84
2021/09/21 14:21:36;;;;;;;32.92;5.93;;;17.20;99.90;;;;;;5071830;28;20030;-83